createdAt,value
2023-03-05T00:00:19.653Z,100042.38
2023-03-05T00:03:23.553Z,100047.66
2023-03-05T00:06:28.886Z,100049.84
2023-03-05T00:09:32.231Z,100054.84
2023-03-05T00:12:37.732Z,100068.59
2023-03-05T00:15:42.306Z,100053.59
2023-03-05T00:18:45.281Z,100056.59
2023-03-05T00:21:48.520Z,100058.03
2023-03-05T00:24:51.877Z,100055.66
2023-03-05T00:27:55.806Z,100068.13
2023-03-05T00:31:03.367Z,100065.13
2023-03-05T00:34:09.676Z,100071.66
2023-03-05T00:37:12.400Z,100062.75
2023-03-05T00:40:38.079Z,100060.94
2023-03-05T00:43:41.787Z,100047.53
2023-03-05T00:46:45.432Z,100041.25
2023-03-05T00:49:49.056Z,100040.34
2023-03-05T00:52:53.140Z,100042.84
2023-03-05T00:55:59.178Z,100042.38
2023-03-05T00:59:02.812Z,100045.25
2023-03-05T01:02:05.691Z,100042.28
2023-03-05T01:05:28.969Z,100041.38
2023-03-05T01:08:32.049Z,100039.09
2023-03-05T01:11:35.284Z,100047.75
2023-03-05T01:14:39.064Z,100043.75
2023-03-05T01:17:42.344Z,100047.19
2023-03-05T01:21:05.545Z,100037.37
2023-03-05T01:24:09.255Z,100035.78
2023-03-05T01:27:12.310Z,100033.25
2023-03-05T01:30:17.435Z,100031.09
2023-03-05T01:33:20.589Z,100038.06
2023-03-05T01:36:25.259Z,100038.88
2023-03-05T01:39:28.461Z,100042.41
2023-03-05T01:42:31.743Z,100029.59
2023-03-05T01:45:34.960Z,100034.16
2023-03-05T01:48:39.166Z,100022.84
2023-03-05T01:51:56.504Z,100040.94
2023-03-05T01:55:04.327Z,100028.31
2023-03-05T01:58:27.085Z,100032.56
2023-03-05T02:01:39.856Z,100033.94
2023-03-05T02:04:49.243Z,100045.13
2023-03-05T02:07:51.908Z,100036.91
2023-03-05T02:10:57.339Z,100038.97
2023-03-05T02:14:02.926Z,100038.62
2023-03-05T02:17:06.492Z,100041.72
2023-03-05T02:20:31.022Z,100030.16
2023-03-05T02:23:36.866Z,100030.06
2023-03-05T02:26:40.025Z,100036.44
2023-03-05T02:29:45.888Z,100027.06
2023-03-05T02:32:48.829Z,100032.56
2023-03-05T02:35:52.276Z,100032.78
2023-03-05T02:38:57.145Z,100042.50
2023-03-05T02:42:00.882Z,100038.50
2023-03-05T02:45:05.097Z,100030.03
2023-03-05T02:48:08.865Z,100021.59
2023-03-05T02:51:12.066Z,100023.53
2023-03-05T02:54:15.318Z,100024.44
2023-03-05T02:57:19.429Z,100013.34
2023-03-05T03:00:23.506Z,100012.31
2023-03-05T03:03:26.626Z,100019.94
2023-03-05T03:06:29.747Z,100015.50
2023-03-05T03:09:36.017Z,100014.25
2023-03-05T03:12:44.600Z,100004.09
2023-03-05T03:15:47.356Z,100000.66
2023-03-05T03:18:50.440Z,99989.78
2023-03-05T03:21:55.077Z,99994.56
2023-03-05T03:24:58.612Z,99999.28
2023-03-05T03:28:01.423Z,99997.09
2023-03-05T03:31:13.137Z,99996.50
2023-03-05T03:34:17.902Z,100001.09
2023-03-05T03:37:21.116Z,99999.22
2023-03-05T03:40:24.623Z,99998.88
2023-03-05T03:43:28.073Z,99996.47
2023-03-05T03:46:30.971Z,100001.34
2023-03-05T03:49:34.937Z,99994.72
2023-03-05T03:52:37.866Z,100000.72
2023-03-05T03:55:42.970Z,99995.16
2023-03-05T03:58:52.140Z,99995.97
2023-03-05T04:01:55.387Z,99992.53
2023-03-05T04:04:58.910Z,99993.69
2023-03-05T04:08:01.953Z,99991.25
2023-03-05T04:11:05.441Z,99984.50
2023-03-05T04:14:08.296Z,99993.69
2023-03-05T04:17:12.279Z,99990.56
2023-03-05T04:20:15.810Z,99988.34
2023-03-05T04:23:19.073Z,99989.66
2023-03-05T04:26:21.989Z,99984.84
2023-03-05T04:29:25.095Z,99978.75
2023-03-05T04:32:30.017Z,99983.97
2023-03-05T04:35:33.129Z,99984.16
2023-03-05T04:38:36.210Z,99985.69
2023-03-05T04:41:39.760Z,99980.69
2023-03-05T04:44:44.256Z,99980.41
2023-03-05T04:47:47.484Z,99982.97
2023-03-05T04:50:50.885Z,99989.94
2023-03-05T04:53:54.201Z,99986.78
2023-03-05T04:56:58.569Z,99983.38
2023-03-05T05:00:01.989Z,99983.94
2023-03-05T05:03:06.324Z,99990.28
2023-03-05T05:06:09.758Z,99988.88
2023-03-05T05:09:12.770Z,99994.53
2023-03-05T05:12:15.828Z,99997.75
2023-03-05T05:15:18.774Z,99997.34
2023-03-05T05:18:22.843Z,99997.66
2023-03-05T05:21:26.461Z,100003.09
2023-03-05T05:24:29.918Z,100009.22
2023-03-05T05:27:33.760Z,100011.06
2023-03-05T05:30:37.429Z,100008.72
2023-03-05T05:33:41.424Z,100006.94
2023-03-05T05:36:45.564Z,100006.25
2023-03-05T05:39:50.460Z,100018.03
2023-03-05T05:42:54.107Z,100012.09
2023-03-05T05:46:09.760Z,100008.75
2023-03-05T05:49:14.410Z,100012.97
2023-03-05T05:52:22.843Z,100010.09
2023-03-05T05:55:26.212Z,100004.16
2023-03-05T05:58:32.621Z,100015.69
2023-03-05T06:01:36.300Z,100012.78
2023-03-05T06:04:43.251Z,100015.84
2023-03-05T06:07:46.756Z,100008.53
2023-03-05T06:10:56.192Z,100021.94
2023-03-05T06:13:59.017Z,100020.94
2023-03-05T06:17:03.200Z,100018.59
2023-03-05T06:20:07.316Z,100021.50
2023-03-05T06:23:10.812Z,100030.25
2023-03-05T06:26:16.427Z,100027.75
2023-03-05T06:29:19.691Z,100032.19
2023-03-05T06:32:23.365Z,100029.16
2023-03-05T06:35:26.985Z,100026.69
2023-03-05T06:38:29.840Z,100026.09
2023-03-05T06:41:33.730Z,100032.12
2023-03-05T06:44:40.808Z,100027.44
2023-03-05T06:48:04.302Z,100035.81
2023-03-05T06:51:14.725Z,100041.94
2023-03-05T06:54:18.329Z,100040.44
2023-03-05T06:57:45.752Z,100034.13
2023-03-05T07:00:58.795Z,100044.84
2023-03-05T07:04:04.498Z,100044.13
2023-03-05T07:07:07.575Z,100036.38
2023-03-05T07:10:19.145Z,100039.44
2023-03-05T07:13:22.592Z,100031.13
2023-03-05T07:16:34.870Z,100035.44
2023-03-05T07:19:46.600Z,100037.34
2023-03-05T07:22:53.234Z,100035.19
2023-03-05T07:25:56.381Z,100029.69
2023-03-05T07:29:39.028Z,100032.81
2023-03-05T07:32:42.348Z,100032.72
2023-03-05T07:35:45.139Z,100038.00
2023-03-05T07:39:08.402Z,100029.22
2023-03-05T07:42:31.681Z,100032.31
2023-03-05T07:45:44.254Z,100025.53
2023-03-05T07:48:47.464Z,100031.53
2023-03-05T07:51:51.190Z,100033.53
2023-03-05T07:54:53.919Z,100037.19
2023-03-05T07:57:58.657Z,100034.47
2023-03-05T08:01:01.790Z,100019.72
2023-03-05T08:05:05.094Z,100024.72
2023-03-05T08:08:12.430Z,100019.84
2023-03-05T08:11:37.334Z,100018.69
2023-03-05T08:14:45.718Z,100026.03
2023-03-05T08:18:08.982Z,100021.59
2023-03-05T08:21:55.008Z,100009.34
2023-03-05T08:25:07.068Z,100009.06
2023-03-05T08:28:29.955Z,100019.09
2023-03-05T08:31:53.811Z,100013.72
2023-03-05T08:35:16.548Z,100018.00
2023-03-05T08:38:40.777Z,100006.37
2023-03-05T08:42:08.587Z,100015.50
2023-03-05T08:45:22.049Z,100014.44
2023-03-05T08:48:44.913Z,100011.31
2023-03-05T08:51:56.652Z,100003.66
2023-03-05T08:55:00.637Z,100010.91
2023-03-05T08:58:04.529Z,100006.75
2023-03-05T09:01:10.375Z,100014.34
2023-03-05T09:04:53.669Z,100010.22
2023-03-05T09:07:56.560Z,99998.66
2023-03-05T09:11:42.146Z,100009.13
2023-03-05T09:15:12.962Z,100004.91
2023-03-05T09:18:36.949Z,99999.16
2023-03-05T09:21:49.405Z,100003.91
2023-03-05T09:24:52.840Z,100009.72
2023-03-05T09:27:55.630Z,100008.41
2023-03-05T09:31:03.993Z,99998.97
2023-03-05T09:34:08.371Z,100000.72
2023-03-05T09:37:12.006Z,99994.16
2023-03-05T09:40:19.549Z,99994.88
2023-03-05T09:43:48.059Z,99994.97
2023-03-05T09:47:22.087Z,99996.59
2023-03-05T09:50:39.126Z,99991.31
2023-03-05T09:53:47.862Z,99986.13
2023-03-05T09:57:24.196Z,99988.25
2023-03-05T10:00:51.203Z,99980.44
2023-03-05T10:04:01.079Z,99984.66
2023-03-05T10:07:16.683Z,99986.91
2023-03-05T10:10:47.627Z,99977.97
2023-03-05T10:14:22.623Z,99972.66
2023-03-05T10:17:34.954Z,99974.25
2023-03-05T10:21:06.609Z,99975.88
2023-03-05T10:24:22.440Z,99972.94
2023-03-05T10:28:01.895Z,99956.78
2023-03-05T10:31:13.061Z,99957.22
2023-03-05T10:34:34.520Z,99951.91
2023-03-05T10:38:11.627Z,99950.72
2023-03-05T10:41:49.615Z,99940.13
2023-03-05T10:45:01.229Z,99933.47
2023-03-05T10:48:29.061Z,99936.47
2023-03-05T10:51:48.475Z,99918.31
2023-03-05T10:54:51.412Z,99923.31
2023-03-05T10:57:55.024Z,99910.91
2023-03-05T11:01:13.096Z,99909.25
2023-03-05T11:04:29.001Z,99901.56
2023-03-05T11:07:35.282Z,99905.47
2023-03-05T11:10:38.575Z,99901.22
2023-03-05T11:13:55.757Z,99899.63
2023-03-05T11:17:03.983Z,99898.19
2023-03-05T11:20:26.572Z,99881.75
2023-03-05T11:23:31.929Z,99879.91
2023-03-05T11:26:34.765Z,99887.50
2023-03-05T11:29:48.396Z,99876.50
2023-03-05T11:33:10.265Z,99878.09
2023-03-05T11:36:23.833Z,99872.94
2023-03-05T11:39:30.438Z,99872.97
2023-03-05T11:43:16.715Z,99862.22
2023-03-05T11:46:21.928Z,99862.31
2023-03-05T11:49:28.552Z,99849.91
2023-03-05T11:52:39.114Z,99850.97
2023-03-05T11:55:45.411Z,99851.97
2023-03-05T11:59:00.279Z,99849.13
2023-03-05T12:02:03.970Z,99848.87
2023-03-05T12:05:07.867Z,99840.34
2023-03-05T12:08:15.621Z,99832.56
2023-03-05T12:11:27.632Z,99824.41
2023-03-05T12:14:42.252Z,99829.97
2023-03-05T12:18:09.005Z,99822.28
2023-03-05T12:21:23.816Z,99816.22
2023-03-05T12:24:28.339Z,99807.06
2023-03-05T12:27:39.423Z,99813.31
2023-03-05T12:30:43.669Z,99808.44
2023-03-05T12:33:46.719Z,99803.47
2023-03-05T12:36:49.718Z,99804.69
2023-03-05T12:40:12.723Z,99805.44
2023-03-05T12:43:33.902Z,99806.66
2023-03-05T12:46:58.167Z,99800.56
2023-03-05T12:50:02.130Z,99793.97
2023-03-05T12:53:11.239Z,99792.28
2023-03-05T12:56:22.315Z,99790.63
2023-03-05T12:59:39.057Z,99793.13
2023-03-05T13:02:45.960Z,99784.28
2023-03-05T13:05:58.271Z,99779.50
2023-03-05T13:09:08.011Z,99775.78
2023-03-05T13:12:14.052Z,99771.06
2023-03-05T13:15:17.383Z,99772.16
2023-03-05T13:18:28.838Z,99770.88
2023-03-05T13:21:33.251Z,99765.34
2023-03-05T13:24:36.152Z,99772.22
2023-03-05T13:27:39.335Z,99764.78
2023-03-05T13:31:12.254Z,99762.13
2023-03-05T13:34:47.310Z,99757.13
2023-03-05T13:37:50.880Z,99766.84
2023-03-05T13:41:27.247Z,99763.69
2023-03-05T13:44:31.217Z,99761.62
2023-03-05T13:47:56.067Z,99756.31
2023-03-05T13:50:59.524Z,99753.16
2023-03-05T13:54:04.353Z,99750.56
2023-03-05T13:57:08.628Z,99748.69
2023-03-05T14:00:35.098Z,99750.28
2023-03-05T14:03:40.561Z,99751.09
2023-03-05T14:06:49.312Z,99741.00
2023-03-05T14:09:56.689Z,99742.06
2023-03-05T14:13:23.713Z,99736.19
